KDFI/DFI METAR and TAF weather

Enter ICAO airport designator
Station Type Date Time Source
KDFI METAR 2022/05/26 03:53 UTC NOAA

KDFI 260353Z AUTO 15004KT 10SM OVC075 21/19 A2993 RMK AO2 RAE24 SLP132 P0006 T02110194 TSNO


Station Type Date Time Source
KDFI Decoded METAR 2022/05/26 03:53 UTC NOAA

DEFIANCE MEMORIAL AIRPORT, OH, United States (KDFI) 41-20N 84-26W 219M
May 25, 2022 - 11:53 PM EDT / 2022.05.26 0353 UTC
Wind: from the SSE (150 degrees) at 5 MPH (4 KT):0
Visibility: 10 mile(s):0
Sky conditions: overcast
Precipitation last hour: 0.06 inches
Temperature: 70.0 F (21.1 C)
Dew Point: 66.9 F (19.4 C)
Relative Humidity: 90%
Pressure (altimeter): 29.93 in. Hg (1013 hPa)
ob: KDFI 260353Z AUTO 15004KT 10SM OVC075 21/19 A2993 RMK AO2 RAE24 SLP132 P0006 T02110194 TSNO
cycle: 4

Station Type Date Time Source
KDFI TAF UTC NOAA

Error!

Example: see airport list